sensor_id;sensor_type;location;lat;lon;timestamp;P1;durP1;ratioP1;P2;durP2;ratioP2
46090;SDS011;31826;53.572;10.170;2023-03-23T00:01:15;8.32;;;3.38;;
46090;SDS011;31826;53.572;10.170;2023-03-23T00:03:45;7.55;;;3.85;;
46090;SDS011;31826;53.572;10.170;2023-03-23T00:06:15;9.20;;;3.90;;
46090;SDS011;31826;53.572;10.170;2023-03-23T00:08:43;9.27;;;4.13;;
46090;SDS011;31826;53.572;10.170;2023-03-23T00:11:15;9.00;;;4.07;;
46090;SDS011;31826;53.572;10.170;2023-03-23T00:13:44;7.60;;;3.72;;
46090;SDS011;31826;53.572;10.170;2023-03-23T00:16:12;9.40;;;3.90;;
46090;SDS011;31826;53.572;10.170;2023-03-23T00:18:45;9.48;;;4.03;;
46090;SDS011;31826;53.572;10.170;2023-03-23T00:21:12;8.60;;;4.35;;
46090;SDS011;31826;53.572;10.170;2023-03-23T00:23:37;9.20;;;4.25;;
46090;SDS011;31826;53.572;10.170;2023-03-23T00:26:04;10.02;;;4.68;;
46090;SDS011;31826;53.572;10.170;2023-03-23T00:28:30;10.75;;;4.43;;
46090;SDS011;31826;53.572;10.170;2023-03-23T00:30:56;13.05;;;5.07;;
46090;SDS011;31826;53.572;10.170;2023-03-23T00:33:24;12.95;;;5.97;;
46090;SDS011;31826;53.572;10.170;2023-03-23T00:35:52;12.55;;;5.72;;
46090;SDS011;31826;53.572;10.170;2023-03-23T00:38:21;11.95;;;5.55;;
46090;SDS011;31826;53.572;10.170;2023-03-23T00:40:48;13.07;;;6.25;;
46090;SDS011;31826;53.572;10.170;2023-03-23T00:43:15;12.52;;;5.85;;
46090;SDS011;31826;53.572;10.170;2023-03-23T00:45:42;14.80;;;6.70;;
46090;SDS011;31826;53.572;10.170;2023-03-23T00:48:20;14.18;;;6.10;;
46090;SDS011;31826;53.572;10.170;2023-03-23T00:50:49;13.35;;;6.45;;
46090;SDS011;31826;53.572;10.170;2023-03-23T00:53:16;15.70;;;7.00;;
46090;SDS011;31826;53.572;10.170;2023-03-23T00:55:43;13.32;;;7.00;;
46090;SDS011;31826;53.572;10.170;2023-03-23T00:58:11;15.60;;;7.85;;
46090;SDS011;31826;53.572;10.170;2023-03-23T01:00:38;17.90;;;7.33;;
46090;SDS011;31826;53.572;10.170;2023-03-23T01:03:04;14.13;;;7.20;;
46090;SDS011;31826;53.572;10.170;2023-03-23T01:05:35;16.27;;;7.70;;
46090;SDS011;31826;53.572;10.170;2023-03-23T01:08:02;18.97;;;8.27;;
46090;SDS011;31826;53.572;10.170;2023-03-23T01:10:28;15.27;;;7.65;;
46090;SDS011;31826;53.572;10.170;2023-03-23T01:12:57;17.55;;;7.82;;
46090;SDS011;31826;53.572;10.170;2023-03-23T01:15:27;16.83;;;8.83;;
46090;SDS011;31826;53.572;10.170;2023-03-23T01:17:54;16.05;;;7.82;;
46090;SDS011;31826;53.572;10.170;2023-03-23T01:20:20;16.42;;;8.40;;
46090;SDS011;31826;53.572;10.170;2023-03-23T01:22:46;16.07;;;8.47;;
46090;SDS011;31826;53.572;10.170;2023-03-23T01:25:12;17.43;;;8.50;;
46090;SDS011;31826;53.572;10.170;2023-03-23T01:27:38;15.55;;;7.88;;
46090;SDS011;31826;53.572;10.170;2023-03-23T01:30:05;19.20;;;8.10;;
46090;SDS011;31826;53.572;10.170;2023-03-23T01:32:32;18.53;;;8.87;;
46090;SDS011;31826;53.572;10.170;2023-03-23T01:34:58;16.20;;;7.57;;
46090;SDS011;31826;53.572;10.170;2023-03-23T01:37:24;17.17;;;7.90;;
46090;SDS011;31826;53.572;10.170;2023-03-23T01:39:54;15.90;;;7.72;;
46090;SDS011;31826;53.572;10.170;2023-03-23T01:42:24;17.45;;;8.55;;
46090;SDS011;31826;53.572;10.170;2023-03-23T01:47:44;15.27;;;7.47;;
46090;SDS011;31826;53.572;10.170;2023-03-23T01:50:11;17.10;;;7.60;;
46090;SDS011;31826;53.572;10.170;2023-03-23T01:52:37;18.63;;;7.82;;
46090;SDS011;31826;53.572;10.170;2023-03-23T01:55:04;16.85;;;8.18;;
46090;SDS011;31826;53.572;10.170;2023-03-23T01:57:30;16.60;;;8.05;;
46090;SDS011;31826;53.572;10.170;2023-03-23T01:59:57;18.45;;;8.00;;
46090;SDS011;31826;53.572;10.170;2023-03-23T02:02:33;18.17;;;8.15;;
46090;SDS011;31826;53.572;10.170;2023-03-23T02:05:02;17.02;;;8.30;;
46090;SDS011;31826;53.572;10.170;2023-03-23T02:07:33;19.05;;;8.43;;
46090;SDS011;31826;53.572;10.170;2023-03-23T02:09:59;17.27;;;8.13;;
46090;SDS011;31826;53.572;10.170;2023-03-23T02:12:25;16.17;;;8.43;;
46090;SDS011;31826;53.572;10.170;2023-03-23T02:14:51;18.77;;;8.13;;
46090;SDS011;31826;53.572;10.170;2023-03-23T02:22:59;15.63;;;7.82;;
46090;SDS011;31826;53.572;10.170;2023-03-23T02:36:00;17.93;;;9.07;;
46090;SDS011;31826;53.572;10.170;2023-03-23T02:38:46;17.38;;;8.25;;
46090;SDS011;31826;53.572;10.170;2023-03-23T02:41:19;18.10;;;8.23;;
46090;SDS011;31826;53.572;10.170;2023-03-23T02:43:48;15.85;;;8.30;;
46090;SDS011;31826;53.572;10.170;2023-03-23T02:46:15;17.83;;;8.45;;
46090;SDS011;31826;53.572;10.170;2023-03-23T02:48:42;17.17;;;8.55;;
46090;SDS011;31826;53.572;10.170;2023-03-23T02:51:09;16.33;;;8.43;;
46090;SDS011;31826;53.572;10.170;2023-03-23T02:53:37;16.30;;;8.05;;
46090;SDS011;31826;53.572;10.170;2023-03-23T02:56:07;15.70;;;7.95;;
46090;SDS011;31826;53.572;10.170;2023-03-23T02:58:34;15.40;;;8.27;;
46090;SDS011;31826;53.572;10.170;2023-03-23T03:01:11;15.57;;;8.13;;
46090;SDS011;31826;53.572;10.170;2023-03-23T03:03:41;18.75;;;8.73;;
46090;SDS011;31826;53.572;10.170;2023-03-23T03:11:53;17.40;;;8.53;;
46090;SDS011;31826;53.572;10.170;2023-03-23T03:14:29;14.32;;;7.93;;
46090;SDS011;31826;53.572;10.170;2023-03-23T03:17:02;15.27;;;7.63;;
46090;SDS011;31826;53.572;10.170;2023-03-23T03:19:35;14.60;;;8.07;;
46090;SDS011;31826;53.572;10.170;2023-03-23T03:22:05;15.52;;;8.00;;
46090;SDS011;31826;53.572;10.170;2023-03-23T03:24:34;15.07;;;7.90;;
46090;SDS011;31826;53.572;10.170;2023-03-23T03:27:04;15.90;;;8.80;;
46090;SDS011;31826;53.572;10.170;2023-03-23T03:29:35;18.00;;;7.95;;
46090;SDS011;31826;53.572;10.170;2023-03-23T03:32:06;17.05;;;8.45;;
46090;SDS011;31826;53.572;10.170;2023-03-23T03:34:36;16.75;;;8.93;;
46090;SDS011;31826;53.572;10.170;2023-03-23T03:37:03;15.55;;;7.95;;
46090;SDS011;31826;53.572;10.170;2023-03-23T03:39:30;14.77;;;8.20;;
46090;SDS011;31826;53.572;10.170;2023-03-23T03:41:59;15.77;;;8.63;;
46090;SDS011;31826;53.572;10.170;2023-03-23T03:44:25;15.10;;;8.45;;
46090;SDS011;31826;53.572;10.170;2023-03-23T03:46:51;18.10;;;9.40;;
46090;SDS011;31826;53.572;10.170;2023-03-23T03:49:16;16.27;;;8.65;;
46090;SDS011;31826;53.572;10.170;2023-03-23T03:51:42;16.15;;;8.60;;
46090;SDS011;31826;53.572;10.170;2023-03-23T03:54:09;14.60;;;8.10;;
46090;SDS011;31826;53.572;10.170;2023-03-23T03:56:35;17.38;;;9.35;;
46090;SDS011;31826;53.572;10.170;2023-03-23T03:59:05;15.07;;;7.70;;
46090;SDS011;31826;53.572;10.170;2023-03-23T04:01:32;14.98;;;8.25;;
46090;SDS011;31826;53.572;10.170;2023-03-23T04:03:58;16.45;;;8.60;;
46090;SDS011;31826;53.572;10.170;2023-03-23T04:06:24;16.20;;;8.43;;
46090;SDS011;31826;53.572;10.170;2023-03-23T04:08:53;15.60;;;8.55;;
46090;SDS011;31826;53.572;10.170;2023-03-23T04:11:20;15.52;;;7.68;;
46090;SDS011;31826;53.572;10.170;2023-03-23T04:13:45;18.73;;;8.77;;
46090;SDS011;31826;53.572;10.170;2023-03-23T04:16:11;17.15;;;8.50;;
46090;SDS011;31826;53.572;10.170;2023-03-23T04:18:37;15.10;;;7.70;;
46090;SDS011;31826;53.572;10.170;2023-03-23T04:21:04;16.13;;;7.80;;
46090;SDS011;31826;53.572;10.170;2023-03-23T04:23:32;14.55;;;7.88;;
46090;SDS011;31826;53.572;10.170;2023-03-23T04:25:59;16.27;;;8.30;;
46090;SDS011;31826;53.572;10.170;2023-03-23T04:28:25;13.52;;;7.30;;
46090;SDS011;31826;53.572;10.170;2023-03-23T04:30:52;15.70;;;7.65;;
46090;SDS011;31826;53.572;10.170;2023-03-23T04:33:19;15.40;;;7.50;;
46090;SDS011;31826;53.572;10.170;2023-03-23T04:35:46;15.25;;;8.18;;
46090;SDS011;31826;53.572;10.170;2023-03-23T04:38:13;17.00;;;7.82;;
46090;SDS011;31826;53.572;10.170;2023-03-23T04:40:41;14.85;;;8.07;;
46090;SDS011;31826;53.572;10.170;2023-03-23T04:43:08;17.05;;;8.40;;
46090;SDS011;31826;53.572;10.170;2023-03-23T04:45:34;16.47;;;8.53;;
46090;SDS011;31826;53.572;10.170;2023-03-23T04:48:02;14.35;;;8.23;;
46090;SDS011;31826;53.572;10.170;2023-03-23T04:50:30;16.70;;;9.25;;
46090;SDS011;31826;53.572;10.170;2023-03-23T04:52:58;14.50;;;7.93;;
46090;SDS011;31826;53.572;10.170;2023-03-23T04:55:29;16.33;;;8.27;;
46090;SDS011;31826;53.572;10.170;2023-03-23T04:57:55;17.50;;;8.45;;
46090;SDS011;31826;53.572;10.170;2023-03-23T05:00:25;14.70;;;8.35;;
46090;SDS011;31826;53.572;10.170;2023-03-23T05:02:51;15.93;;;8.27;;
46090;SDS011;31826;53.572;10.170;2023-03-23T05:05:17;17.77;;;8.68;;
46090;SDS011;31826;53.572;10.170;2023-03-23T05:07:44;16.13;;;9.63;;
46090;SDS011;31826;53.572;10.170;2023-03-23T05:10:10;14.00;;;7.78;;
46090;SDS011;31826;53.572;10.170;2023-03-23T05:12:37;14.88;;;7.90;;
46090;SDS011;31826;53.572;10.170;2023-03-23T05:15:04;14.50;;;8.00;;
46090;SDS011;31826;53.572;10.170;2023-03-23T05:17:31;13.30;;;7.82;;
46090;SDS011;31826;53.572;10.170;2023-03-23T05:19:58;12.95;;;7.45;;
46090;SDS011;31826;53.572;10.170;2023-03-23T05:22:26;13.90;;;7.78;;
46090;SDS011;31826;53.572;10.170;2023-03-23T05:24:52;14.73;;;7.40;;
46090;SDS011;31826;53.572;10.170;2023-03-23T05:27:18;13.17;;;7.03;;
46090;SDS011;31826;53.572;10.170;2023-03-23T05:29:45;13.70;;;7.65;;
46090;SDS011;31826;53.572;10.170;2023-03-23T05:32:13;12.88;;;6.68;;
46090;SDS011;31826;53.572;10.170;2023-03-23T05:34:40;12.93;;;6.25;;
46090;SDS011;31826;53.572;10.170;2023-03-23T05:37:08;13.85;;;6.40;;
46090;SDS011;31826;53.572;10.170;2023-03-23T05:39:35;11.45;;;5.32;;
46090;SDS011;31826;53.572;10.170;2023-03-23T05:42:01;14.43;;;6.32;;
46090;SDS011;31826;53.572;10.170;2023-03-23T05:44:28;14.38;;;6.20;;
46090;SDS011;31826;53.572;10.170;2023-03-23T05:46:54;13.02;;;6.30;;
46090;SDS011;31826;53.572;10.170;2023-03-23T05:49:20;14.40;;;6.20;;
46090;SDS011;31826;53.572;10.170;2023-03-23T05:51:47;11.05;;;5.65;;
46090;SDS011;31826;53.572;10.170;2023-03-23T05:54:14;12.82;;;5.47;;
46090;SDS011;31826;53.572;10.170;2023-03-23T05:56:41;12.23;;;5.35;;
46090;SDS011;31826;53.572;10.170;2023-03-23T05:59:07;11.48;;;5.97;;
46090;SDS011;31826;53.572;10.170;2023-03-23T06:01:35;11.15;;;5.07;;
46090;SDS011;31826;53.572;10.170;2023-03-23T06:04:02;9.73;;;4.90;;
46090;SDS011;31826;53.572;10.170;2023-03-23T06:06:28;11.75;;;5.18;;
46090;SDS011;31826;53.572;10.170;2023-03-23T06:08:55;11.75;;;5.18;;
46090;SDS011;31826;53.572;10.170;2023-03-23T06:11:22;12.18;;;5.00;;
46090;SDS011;31826;53.572;10.170;2023-03-23T06:13:49;15.88;;;6.80;;
46090;SDS011;31826;53.572;10.170;2023-03-23T06:16:15;13.70;;;6.53;;
46090;SDS011;31826;53.572;10.170;2023-03-23T06:18:41;12.30;;;6.07;;
46090;SDS011;31826;53.572;10.170;2023-03-23T06:21:07;9.65;;;4.90;;
46090;SDS011;31826;53.572;10.170;2023-03-23T06:23:34;10.30;;;4.57;;
46090;SDS011;31826;53.572;10.170;2023-03-23T06:26:02;11.52;;;5.32;;
46090;SDS011;31826;53.572;10.170;2023-03-23T06:28:30;13.98;;;5.68;;
46090;SDS011;31826;53.572;10.170;2023-03-23T06:31:03;10.57;;;5.30;;
46090;SDS011;31826;53.572;10.170;2023-03-23T06:33:31;11.60;;;5.13;;
46090;SDS011;31826;53.572;10.170;2023-03-23T06:35:59;17.33;;;5.65;;
46090;SDS011;31826;53.572;10.170;2023-03-23T06:38:25;14.02;;;5.78;;
46090;SDS011;31826;53.572;10.170;2023-03-23T06:40:52;15.70;;;6.73;;
46090;SDS011;31826;53.572;10.170;2023-03-23T06:43:18;14.70;;;6.22;;
46090;SDS011;31826;53.572;10.170;2023-03-23T06:45:44;10.45;;;4.25;;
46090;SDS011;31826;53.572;10.170;2023-03-23T06:48:10;16.15;;;6.70;;
46090;SDS011;31826;53.572;10.170;2023-03-23T06:50:35;10.45;;;4.80;;
46090;SDS011;31826;53.572;10.170;2023-03-23T06:53:01;12.02;;;5.65;;
46090;SDS011;31826;53.572;10.170;2023-03-23T06:55:27;9.70;;;4.20;;
46090;SDS011;31826;53.572;10.170;2023-03-23T06:57:53;11.43;;;4.70;;
46090;SDS011;31826;53.572;10.170;2023-03-23T07:00:18;9.63;;;3.93;;
46090;SDS011;31826;53.572;10.170;2023-03-23T07:02:44;8.82;;;4.45;;
46090;SDS011;31826;53.572;10.170;2023-03-23T07:05:11;9.40;;;3.78;;
46090;SDS011;31826;53.572;10.170;2023-03-23T07:07:37;7.43;;;3.47;;
46090;SDS011;31826;53.572;10.170;2023-03-23T07:10:04;8.00;;;3.53;;
46090;SDS011;31826;53.572;10.170;2023-03-23T07:12:33;11.07;;;3.85;;
46090;SDS011;31826;53.572;10.170;2023-03-23T07:15:00;8.13;;;3.70;;
46090;SDS011;31826;53.572;10.170;2023-03-23T07:17:27;7.83;;;3.57;;
46090;SDS011;31826;53.572;10.170;2023-03-23T07:19:53;7.07;;;3.00;;
46090;SDS011;31826;53.572;10.170;2023-03-23T07:22:19;7.88;;;3.47;;
46090;SDS011;31826;53.572;10.170;2023-03-23T07:24:45;7.13;;;3.17;;
46090;SDS011;31826;53.572;10.170;2023-03-23T07:27:11;7.68;;;3.55;;
46090;SDS011;31826;53.572;10.170;2023-03-23T07:29:37;6.45;;;3.10;;
46090;SDS011;31826;53.572;10.170;2023-03-23T07:32:04;7.40;;;3.20;;
46090;SDS011;31826;53.572;10.170;2023-03-23T07:34:31;7.47;;;2.95;;
46090;SDS011;31826;53.572;10.170;2023-03-23T07:36:57;6.28;;;3.00;;
46090;SDS011;31826;53.572;10.170;2023-03-23T07:39:23;7.10;;;3.20;;
46090;SDS011;31826;53.572;10.170;2023-03-23T07:41:49;5.65;;;2.83;;
46090;SDS011;31826;53.572;10.170;2023-03-23T07:44:15;6.40;;;3.00;;
46090;SDS011;31826;53.572;10.170;2023-03-23T07:46:41;7.53;;;2.67;;
46090;SDS011;31826;53.572;10.170;2023-03-23T07:49:07;4.70;;;2.30;;
46090;SDS011;31826;53.572;10.170;2023-03-23T07:51:33;8.30;;;3.15;;
46090;SDS011;31826;53.572;10.170;2023-03-23T07:53:59;6.60;;;2.75;;
46090;SDS011;31826;53.572;10.170;2023-03-23T07:56:27;8.05;;;3.08;;
46090;SDS011;31826;53.572;10.170;2023-03-23T07:58:53;8.27;;;2.80;;
46090;SDS011;31826;53.572;10.170;2023-03-23T08:01:19;6.27;;;3.00;;
46090;SDS011;31826;53.572;10.170;2023-03-23T08:03:44;6.30;;;2.70;;
46090;SDS011;31826;53.572;10.170;2023-03-23T08:06:10;7.00;;;2.90;;
46090;SDS011;31826;53.572;10.170;2023-03-23T08:08:36;5.15;;;2.55;;
46090;SDS011;31826;53.572;10.170;2023-03-23T08:11:02;6.47;;;3.13;;
46090;SDS011;31826;53.572;10.170;2023-03-23T08:13:28;7.80;;;3.10;;
46090;SDS011;31826;53.572;10.170;2023-03-23T08:15:54;6.32;;;3.47;;
46090;SDS011;31826;53.572;10.170;2023-03-23T08:18:20;6.53;;;3.30;;
46090;SDS011;31826;53.572;10.170;2023-03-23T08:20:45;13.90;;;3.87;;
46090;SDS011;31826;53.572;10.170;2023-03-23T08:23:11;6.43;;;3.10;;
46090;SDS011;31826;53.572;10.170;2023-03-23T08:25:37;5.90;;;3.10;;
46090;SDS011;31826;53.572;10.170;2023-03-23T08:28:03;8.13;;;3.43;;
46090;SDS011;31826;53.572;10.170;2023-03-23T08:30:29;7.20;;;2.97;;
46090;SDS011;31826;53.572;10.170;2023-03-23T08:32:57;6.72;;;3.60;;
46090;SDS011;31826;53.572;10.170;2023-03-23T08:35:24;6.90;;;3.22;;
46090;SDS011;31826;53.572;10.170;2023-03-23T08:37:49;5.35;;;2.90;;
46090;SDS011;31826;53.572;10.170;2023-03-23T08:40:16;5.72;;;3.30;;
46090;SDS011;31826;53.572;10.170;2023-03-23T08:42:44;6.05;;;2.90;;
46090;SDS011;31826;53.572;10.170;2023-03-23T08:45:12;8.20;;;3.57;;
46090;SDS011;31826;53.572;10.170;2023-03-23T08:47:41;4.50;;;2.40;;
46090;SDS011;31826;53.572;10.170;2023-03-23T08:50:08;4.50;;;1.77;;
46090;SDS011;31826;53.572;10.170;2023-03-23T08:52:36;2.77;;;1.70;;
46090;SDS011;31826;53.572;10.170;2023-03-23T08:55:03;2.72;;;1.65;;
46090;SDS011;31826;53.572;10.170;2023-03-23T08:57:29;4.13;;;2.30;;
46090;SDS011;31826;53.572;10.170;2023-03-23T08:59:55;8.02;;;3.05;;
46090;SDS011;31826;53.572;10.170;2023-03-23T09:02:26;6.67;;;3.23;;
46090;SDS011;31826;53.572;10.170;2023-03-23T09:04:52;11.77;;;4.30;;
46090;SDS011;31826;53.572;10.170;2023-03-23T09:07:19;14.57;;;4.43;;
46090;SDS011;31826;53.572;10.170;2023-03-23T09:09:45;9.90;;;3.80;;
46090;SDS011;31826;53.572;10.170;2023-03-23T09:12:11;6.68;;;3.13;;
46090;SDS011;31826;53.572;10.170;2023-03-23T09:14:37;7.03;;;3.00;;
46090;SDS011;31826;53.572;10.170;2023-03-23T09:17:04;3.80;;;2.20;;
46090;SDS011;31826;53.572;10.170;2023-03-23T09:19:31;9.18;;;3.00;;
46090;SDS011;31826;53.572;10.170;2023-03-23T09:21:58;6.70;;;2.10;;
46090;SDS011;31826;53.572;10.170;2023-03-23T09:24:25;8.10;;;2.63;;
46090;SDS011;31826;53.572;10.170;2023-03-23T09:26:51;7.40;;;2.78;;
46090;SDS011;31826;53.572;10.170;2023-03-23T09:29:17;7.45;;;2.20;;
46090;SDS011;31826;53.572;10.170;2023-03-23T09:31:44;7.30;;;2.40;;
46090;SDS011;31826;53.572;10.170;2023-03-23T09:34:11;4.82;;;1.80;;
46090;SDS011;31826;53.572;10.170;2023-03-23T09:36:38;10.48;;;2.35;;
46090;SDS011;31826;53.572;10.170;2023-03-23T09:39:04;8.57;;;2.30;;
46090;SDS011;31826;53.572;10.170;2023-03-23T09:47:03;9.00;;;1.90;;
46090;SDS011;31826;53.572;10.170;2023-03-23T09:50:08;7.60;;;2.33;;
46090;SDS011;31826;53.572;10.170;2023-03-23T09:52:39;8.05;;;2.10;;
46090;SDS011;31826;53.572;10.170;2023-03-23T09:55:16;7.90;;;1.88;;
46090;SDS011;31826;53.572;10.170;2023-03-23T09:57:46;4.75;;;1.42;;
46090;SDS011;31826;53.572;10.170;2023-03-23T10:03:17;5.30;;;1.85;;
46090;SDS011;31826;53.572;10.170;2023-03-23T10:05:50;7.77;;;1.93;;
46090;SDS011;31826;53.572;10.170;2023-03-23T10:08:24;7.50;;;1.70;;
46090;SDS011;31826;53.572;10.170;2023-03-23T10:11:04;7.82;;;1.70;;
46090;SDS011;31826;53.572;10.170;2023-03-23T10:13:46;9.07;;;2.00;;
46090;SDS011;31826;53.572;10.170;2023-03-23T10:16:34;14.17;;;3.90;;
46090;SDS011;31826;53.572;10.170;2023-03-23T10:22:17;5.70;;;1.75;;
46090;SDS011;31826;53.572;10.170;2023-03-23T10:24:57;7.90;;;1.90;;
46090;SDS011;31826;53.572;10.170;2023-03-23T10:35:57;5.75;;;1.60;;
46090;SDS011;31826;53.572;10.170;2023-03-23T10:38:35;8.73;;;1.97;;
46090;SDS011;31826;53.572;10.170;2023-03-23T10:41:15;8.48;;;2.30;;
46090;SDS011;31826;53.572;10.170;2023-03-23T10:43:43;7.90;;;1.97;;
46090;SDS011;31826;53.572;10.170;2023-03-23T10:48:50;7.20;;;1.67;;
46090;SDS011;31826;53.572;10.170;2023-03-23T10:51:19;7.97;;;1.65;;
46090;SDS011;31826;53.572;10.170;2023-03-23T10:53:50;7.78;;;1.75;;
46090;SDS011;31826;53.572;10.170;2023-03-23T10:56:23;6.53;;;2.17;;
46090;SDS011;31826;53.572;10.170;2023-03-23T10:58:52;7.50;;;2.20;;
46090;SDS011;31826;53.572;10.170;2023-03-23T11:01:20;13.10;;;1.95;;
46090;SDS011;31826;53.572;10.170;2023-03-23T11:03:58;6.72;;;1.90;;
46090;SDS011;31826;53.572;10.170;2023-03-23T11:06:30;8.43;;;1.70;;
46090;SDS011;31826;53.572;10.170;2023-03-23T11:09:10;8.68;;;1.88;;
46090;SDS011;31826;53.572;10.170;2023-03-23T11:11:43;8.82;;;1.60;;
46090;SDS011;31826;53.572;10.170;2023-03-23T11:14:26;7.57;;;1.80;;
46090;SDS011;31826;53.572;10.170;2023-03-23T11:17:04;5.15;;;1.60;;
46090;SDS011;31826;53.572;10.170;2023-03-23T11:19:44;7.80;;;2.08;;
46090;SDS011;31826;53.572;10.170;2023-03-23T11:22:15;8.23;;;1.95;;
46090;SDS011;31826;53.572;10.170;2023-03-23T11:24:55;10.53;;;2.40;;
46090;SDS011;31826;53.572;10.170;2023-03-23T11:27:24;9.65;;;2.22;;
46090;SDS011;31826;53.572;10.170;2023-03-23T11:29:56;8.55;;;1.90;;
46090;SDS011;31826;53.572;10.170;2023-03-23T11:32:35;9.05;;;2.13;;
46090;SDS011;31826;53.572;10.170;2023-03-23T11:35:06;13.68;;;2.45;;
46090;SDS011;31826;53.572;10.170;2023-03-23T11:37:42;9.15;;;2.28;;
46090;SDS011;31826;53.572;10.170;2023-03-23T11:42:47;7.40;;;2.60;;
46090;SDS011;31826;53.572;10.170;2023-03-23T11:51:02;14.02;;;2.33;;
46090;SDS011;31826;53.572;10.170;2023-03-23T11:58:58;8.27;;;1.85;;
46090;SDS011;31826;53.572;10.170;2023-03-23T12:01:40;7.60;;;2.45;;
46090;SDS011;31826;53.572;10.170;2023-03-23T12:04:25;5.05;;;1.92;;
46090;SDS011;31826;53.572;10.170;2023-03-23T12:22:11;12.63;;;2.40;;
46090;SDS011;31826;53.572;10.170;2023-03-23T12:38:56;8.00;;;2.80;;
46090;SDS011;31826;53.572;10.170;2023-03-23T12:42:05;9.25;;;2.30;;
46090;SDS011;31826;53.572;10.170;2023-03-23T12:53:10;8.97;;;2.20;;
46090;SDS011;31826;53.572;10.170;2023-03-23T12:55:47;8.10;;;2.50;;
46090;SDS011;31826;53.572;10.170;2023-03-23T12:58:26;7.05;;;2.38;;
46090;SDS011;31826;53.572;10.170;2023-03-23T13:06:25;7.03;;;2.50;;
46090;SDS011;31826;53.572;10.170;2023-03-23T13:11:42;11.32;;;3.17;;
46090;SDS011;31826;53.572;10.170;2023-03-23T13:16:58;12.18;;;2.95;;
46090;SDS011;31826;53.572;10.170;2023-03-23T13:19:51;9.05;;;2.20;;
46090;SDS011;31826;53.572;10.170;2023-03-23T13:22:31;8.88;;;2.40;;
46090;SDS011;31826;53.572;10.170;2023-03-23T13:25:13;9.15;;;2.72;;
46090;SDS011;31826;53.572;10.170;2023-03-23T13:27:42;11.23;;;3.00;;
46090;SDS011;31826;53.572;10.170;2023-03-23T13:30:21;9.13;;;2.63;;
46090;SDS011;31826;53.572;10.170;2023-03-23T13:32:50;7.45;;;2.28;;
46090;SDS011;31826;53.572;10.170;2023-03-23T13:35:18;8.43;;;2.20;;
46090;SDS011;31826;53.572;10.170;2023-03-23T13:37:50;7.65;;;2.67;;
46090;SDS011;31826;53.572;10.170;2023-03-23T13:42:52;7.20;;;2.45;;
46090;SDS011;31826;53.572;10.170;2023-03-23T13:47:48;7.40;;;2.20;;
46090;SDS011;31826;53.572;10.170;2023-03-23T14:05:45;4.55;;;1.80;;
46090;SDS011;31826;53.572;10.170;2023-03-23T14:08:22;4.72;;;1.80;;
46090;SDS011;31826;53.572;10.170;2023-03-23T14:10:56;6.60;;;2.15;;
46090;SDS011;31826;53.572;10.170;2023-03-23T14:19:18;6.35;;;2.30;;
46090;SDS011;31826;53.572;10.170;2023-03-23T14:21:54;3.37;;;1.30;;
46090;SDS011;31826;53.572;10.170;2023-03-23T14:24:29;2.30;;;1.50;;
46090;SDS011;31826;53.572;10.170;2023-03-23T14:27:10;5.13;;;1.52;;
46090;SDS011;31826;53.572;10.170;2023-03-23T14:29:41;2.88;;;1.10;;
46090;SDS011;31826;53.572;10.170;2023-03-23T14:32:10;4.97;;;1.83;;
46090;SDS011;31826;53.572;10.170;2023-03-23T14:34:43;7.57;;;1.52;;
46090;SDS011;31826;53.572;10.170;2023-03-23T14:37:11;3.53;;;1.40;;
46090;SDS011;31826;53.572;10.170;2023-03-23T14:39:40;1.83;;;1.20;;
46090;SDS011;31826;53.572;10.170;2023-03-23T14:42:11;4.43;;;1.42;;
46090;SDS011;31826;53.572;10.170;2023-03-23T14:44:43;6.68;;;1.70;;
46090;SDS011;31826;53.572;10.170;2023-03-23T14:47:23;3.67;;;1.20;;
46090;SDS011;31826;53.572;10.170;2023-03-23T14:49:53;2.83;;;1.20;;
46090;SDS011;31826;53.572;10.170;2023-03-23T14:52:21;5.15;;;2.00;;
46090;SDS011;31826;53.572;10.170;2023-03-23T14:54:49;6.60;;;1.45;;
46090;SDS011;31826;53.572;10.170;2023-03-23T14:57:18;5.67;;;1.50;;
46090;SDS011;31826;53.572;10.170;2023-03-23T14:59:51;4.28;;;1.33;;
46090;SDS011;31826;53.572;10.170;2023-03-23T15:02:51;6.45;;;2.00;;
46090;SDS011;31826;53.572;10.170;2023-03-23T15:07:38;5.80;;;1.63;;
46090;SDS011;31826;53.572;10.170;2023-03-23T15:10:08;5.73;;;1.57;;
46090;SDS011;31826;53.572;10.170;2023-03-23T15:12:38;4.80;;;1.60;;
46090;SDS011;31826;53.572;10.170;2023-03-23T15:15:05;5.33;;;1.63;;
46090;SDS011;31826;53.572;10.170;2023-03-23T15:17:41;6.63;;;1.52;;
46090;SDS011;31826;53.572;10.170;2023-03-23T15:20:18;5.03;;;1.58;;
46090;SDS011;31826;53.572;10.170;2023-03-23T15:22:45;5.97;;;1.60;;
46090;SDS011;31826;53.572;10.170;2023-03-23T15:25:17;6.18;;;1.60;;
46090;SDS011;31826;53.572;10.170;2023-03-23T15:27:51;8.20;;;2.15;;
46090;SDS011;31826;53.572;10.170;2023-03-23T15:32:47;6.30;;;2.05;;
46090;SDS011;31826;53.572;10.170;2023-03-23T15:35:16;6.30;;;2.70;;
46090;SDS011;31826;53.572;10.170;2023-03-23T15:38:12;6.78;;;3.00;;
46090;SDS011;31826;53.572;10.170;2023-03-23T15:40:43;8.20;;;3.03;;
46090;SDS011;31826;53.572;10.170;2023-03-23T15:45:53;10.68;;;3.50;;
46090;SDS011;31826;53.572;10.170;2023-03-23T15:48:28;9.40;;;3.22;;
46090;SDS011;31826;53.572;10.170;2023-03-23T15:50:58;12.57;;;4.90;;
46090;SDS011;31826;53.572;10.170;2023-03-23T15:53:37;3.67;;;1.73;;
46090;SDS011;31826;53.572;10.170;2023-03-23T15:56:06;6.18;;;2.13;;
46090;SDS011;31826;53.572;10.170;2023-03-23T15:58:34;8.10;;;2.63;;
46090;SDS011;31826;53.572;10.170;2023-03-23T16:01:05;8.82;;;2.20;;
46090;SDS011;31826;53.572;10.170;2023-03-23T16:03:45;5.70;;;1.50;;
46090;SDS011;31826;53.572;10.170;2023-03-23T16:06:14;6.53;;;1.75;;
46090;SDS011;31826;53.572;10.170;2023-03-23T16:08:42;6.72;;;2.10;;
46090;SDS011;31826;53.572;10.170;2023-03-23T16:11:11;2.73;;;1.60;;
46090;SDS011;31826;53.572;10.170;2023-03-23T16:13:40;6.07;;;1.58;;
46090;SDS011;31826;53.572;10.170;2023-03-23T16:16:06;6.60;;;1.98;;
46090;SDS011;31826;53.572;10.170;2023-03-23T16:18:39;3.85;;;1.45;;
46090;SDS011;31826;53.572;10.170;2023-03-23T16:21:05;4.03;;;1.50;;
46090;SDS011;31826;53.572;10.170;2023-03-23T16:23:31;4.53;;;1.75;;
46090;SDS011;31826;53.572;10.170;2023-03-23T16:25:56;5.82;;;1.48;;
46090;SDS011;31826;53.572;10.170;2023-03-23T16:28:22;3.90;;;1.40;;
46090;SDS011;31826;53.572;10.170;2023-03-23T16:30:48;5.45;;;1.80;;
46090;SDS011;31826;53.572;10.170;2023-03-23T16:33:13;4.70;;;1.60;;
46090;SDS011;31826;53.572;10.170;2023-03-23T16:35:39;3.83;;;1.30;;
46090;SDS011;31826;53.572;10.170;2023-03-23T16:38:05;5.30;;;1.30;;
46090;SDS011;31826;53.572;10.170;2023-03-23T16:40:31;5.73;;;1.80;;
46090;SDS011;31826;53.572;10.170;2023-03-23T16:42:57;3.35;;;1.40;;
46090;SDS011;31826;53.572;10.170;2023-03-23T16:45:23;4.47;;;1.80;;
46090;SDS011;31826;53.572;10.170;2023-03-23T16:47:50;7.10;;;2.28;;
46090;SDS011;31826;53.572;10.170;2023-03-23T16:50:18;8.45;;;2.00;;
46090;SDS011;31826;53.572;10.170;2023-03-23T16:52:45;7.88;;;1.80;;
46090;SDS011;31826;53.572;10.170;2023-03-23T16:55:11;5.65;;;1.52;;
46090;SDS011;31826;53.572;10.170;2023-03-23T16:57:38;7.10;;;1.98;;
46090;SDS011;31826;53.572;10.170;2023-03-23T17:00:06;3.57;;;1.50;;
46090;SDS011;31826;53.572;10.170;2023-03-23T17:02:34;6.95;;;1.90;;
46090;SDS011;31826;53.572;10.170;2023-03-23T17:05:00;4.53;;;2.00;;